Time;durP1;ratioP1;P1;durP2;ratioP2;P2;SDS_P1;SDS_P2;PMS_P1;PMS_P2;Temp;Humidity;BMP_temperature;BMP_pressure;BME280_temperature;BME280_humidity;BME280_pressure;Samples;Min_cycle;Max_cycle;Signal;HPM_P1;HPM_P2
2023/10/19 00:01:16;;;;;;;20.80;12.70;;;;;;;4.07;70.55;99161.50;107233;1262;60302;-35
2023/10/19 00:03:44;;;;;;;18.50;12.90;;;;;;;4.04;70.33;99163.16;107277;1257;74303;-35
2023/10/19 00:06:12;;;;;;;19.10;13.00;;;;;;;4.00;70.27;99161.81;107213;1259;66311;-35
2023/10/19 00:08:42;;;;;;;21.10;13.20;;;;;;;3.92;70.34;99162.44;107232;1262;72690;-34
2023/10/19 00:11:11;;;;;;;16.90;12.30;;;;;;;3.86;70.60;99160.79;107193;1263;60574;-34
2023/10/19 00:13:39;;;;;;;20.40;12.60;;;;;;;3.82;70.73;99156.83;107268;1256;60679;-34
2023/10/19 00:16:17;;;;;;;20.10;12.40;;;;;;;3.86;70.53;99162.42;107277;1257;73899;-35
2023/10/19 00:18:48;;;;;;;17.80;12.00;;;;;;;3.90;70.26;99157.84;107236;1257;67571;-35
2023/10/19 00:21:26;;;;;;;22.40;14.10;;;;;;;3.85;70.40;99157.16;107192;1257;72760;-35
2023/10/19 00:23:57;;;;;;;20.50;13.40;;;;;;;3.78;70.52;99159.10;107201;1263;60457;-35
2023/10/19 00:26:25;;;;;;;22.30;13.50;;;;;;;3.74;70.70;99156.14;107272;1262;60227;-35
2023/10/19 00:28:57;;;;;;;17.40;12.80;;;;;;;3.71;70.84;99156.73;106473;1257;1003794;-35
2023/10/19 00:31:27;;;;;;;18.40;13.60;;;;;;;3.71;70.86;99159.40;107215;1257;68359;-35
2023/10/19 00:33:57;;;;;;;19.60;12.90;;;;;;;3.69;70.81;99156.16;107241;1260;71457;-35
2023/10/19 00:36:26;;;;;;;18.30;11.90;;;;;;;3.65;70.47;99154.33;107195;1257;60312;-35
2023/10/19 00:38:54;;;;;;;20.00;10.70;;;;;;;3.70;70.23;99154.45;107050;1262;59597;-35
2023/10/19 00:41:30;;;;;;;17.80;11.90;;;;;;;3.76;69.70;99149.33;107274;1257;73158;-35
2023/10/19 00:44:10;;;;;;;21.20;12.30;;;;;;;3.74;69.67;99152.38;107196;1263;67586;-34
2023/10/19 00:46:43;;;;;;;19.00;13.10;;;;;;;3.72;70.01;99149.25;107212;1263;72704;-35
2023/10/19 00:49:15;;;;;;;17.30;12.10;;;;;;;3.71;70.18;99151.99;107221;1258;60482;-35
2023/10/19 00:54:26;;;;;;;21.40;14.60;;;;;;;3.68;69.82;99156.13;107206;1257;72590;-35
2023/10/19 00:56:58;;;;;;;19.90;14.30;;;;;;;3.64;70.17;99150.98;107235;1257;66793;-35
2023/10/19 00:59:35;;;;;;;21.10;14.10;;;;;;;3.61;70.35;99147.15;107199;1260;71731;-35
2023/10/19 01:05:04;;;;;;;22.40;13.60;;;;;;;3.59;70.51;99146.02;106460;1257;1003822;-35
2023/10/19 01:07:42;;;;;;;21.30;13.50;;;;;;;3.65;70.54;99149.00;107219;1262;73669;-35
2023/10/19 01:10:13;;;;;;;22.30;13.80;;;;;;;3.62;70.89;99149.80;107210;1257;67758;-35
2023/10/19 01:12:43;;;;;;;19.70;14.00;;;;;;;3.64;71.28;99146.28;107143;1263;72715;-36
2023/10/19 01:15:17;;;;;;;20.80;14.00;;;;;;;3.67;71.21;99145.37;107177;1263;60447;-36
2023/10/19 01:17:51;;;;;;;20.50;13.50;;;;;;;3.71;71.10;99143.60;107201;1256;60435;-36
2023/10/19 01:20:22;;;;;;;18.60;13.80;;;;;;;3.71;70.91;99142.91;107228;1258;74413;-36
2023/10/19 01:28:42;;;;;;;20.80;14.50;;;;;;;3.63;71.05;99142.73;107266;1263;60506;-36
2023/10/19 01:31:51;;;;;;;23.90;14.60;;;;;;;3.67;71.34;99145.23;107075;1258;60468;-36
2023/10/19 01:34:09;;;;;;;21.20;13.90;;;;;;;3.68;71.31;99144.85;107232;1257;72538;-36
2023/10/19 01:36:42;;;;;;;20.60;14.50;;;;;;;3.63;71.55;99141.91;107235;1258;65694;-36
2023/10/19 01:39:11;;;;;;;20.90;15.10;;;;;;;3.63;71.87;99145.10;107212;1263;72664;-36
2023/10/19 01:41:41;;;;;;;23.30;15.20;;;;;;;3.64;71.94;99146.00;107227;1257;60422;-35
2023/10/19 01:44:13;;;;;;;20.50;14.10;;;;;;;3.65;71.98;99146.79;107083;1264;60313;-35
2023/10/19 01:46:43;;;;;;;21.00;14.70;;;;;;;3.62;71.96;99145.83;107260;1257;73844;-35
2023/10/19 01:49:11;;;;;;;;;;;;;;;3.65;71.92;99145.95;107214;1258;68177;-35
2023/10/19 01:51:39;;;;;;;23.10;13.00;;;;;;;3.69;71.84;99148.42;107172;1262;72676;-35
2023/10/19 01:54:09;;;;;;;18.00;13.80;;;;;;;3.67;72.15;99147.96;107219;1263;60522;-35
2023/10/19 01:56:38;;;;;;;20.50;14.60;;;;;;;3.67;72.38;99143.98;107214;1262;60389;-35
2023/10/19 01:59:09;;;;;;;23.00;15.40;;;;;;;3.71;72.36;99145.05;107064;1257;72289;-35
2023/10/19 02:01:37;;;;;;;22.20;14.80;;;;;;;3.75;72.49;99145.61;107211;1257;67637;-35
2023/10/19 02:04:05;;;;;;;23.60;15.70;;;;;;;3.75;72.20;99142.16;107217;1258;72665;-35
2023/10/19 02:09:09;;;;;;;25.70;14.40;;;;;;;3.67;72.06;99137.14;107184;1263;60370;-35
2023/10/19 02:11:41;;;;;;;21.90;13.70;;;;;;;3.71;72.19;99137.19;107239;1262;73865;-35
2023/10/19 02:14:15;;;;;;;22.50;15.30;;;;;;;3.70;72.32;99134.92;107201;1263;67579;-35
2023/10/19 02:16:44;;;;;;;24.20;15.10;;;;;;;3.66;72.40;99137.05;107236;1261;72668;-35
2023/10/19 02:19:11;;;;;;;26.00;15.40;;;;;;;3.63;72.65;99139.67;107313;1257;60426;-35
2023/10/19 02:21:40;;;;;;;22.90;14.90;;;;;;;3.58;72.46;99142.30;107316;1258;60302;-35
2023/10/19 02:24:09;;;;;;;21.10;15.20;;;;;;;3.53;72.51;99141.62;107201;1261;74157;-35
2023/10/19 02:26:37;;;;;;;20.80;14.50;;;;;;;3.47;72.51;99141.81;107122;1262;67942;-35
2023/10/19 02:29:09;;;;;;;20.10;13.70;;;;;;;3.50;72.41;99137.59;107051;1257;71794;-35
2023/10/19 02:31:39;;;;;;;18.90;13.70;;;;;;;3.57;72.33;99141.11;107238;1263;60406;-35
2023/10/19 02:34:10;;;;;;;19.10;14.50;;;;;;;3.55;72.31;99141.86;107213;1262;60400;-35
2023/10/19 02:36:39;;;;;;;22.30;14.80;;;;;;;3.51;72.42;99139.15;107216;1262;73866;-35
2023/10/19 02:39:08;;;;;;;23.40;15.80;;;;;;;3.44;72.36;99139.92;107297;1257;66649;-35
2023/10/19 02:41:48;;;;;;;23.30;14.90;;;;;;;3.35;72.30;99144.83;107231;1257;72762;-35
2023/10/19 02:46:48;;;;;;;23.70;15.60;;;;;;;3.19;72.50;99144.33;107201;1262;60491;-35
2023/10/19 02:49:22;;;;;;;21.50;14.10;;;;;;;3.18;72.48;99140.23;107111;1257;73834;-35
2023/10/19 02:51:50;;;;;;;18.20;13.60;;;;;;;3.21;72.39;99138.45;107164;1257;67888;-35
2023/10/19 02:54:20;;;;;;;22.30;14.60;;;;;;;3.19;72.21;99141.34;107229;1262;72675;-35
2023/10/19 02:56:49;;;;;;;21.40;14.60;;;;;;;3.14;72.46;99140.67;107278;1257;60342;-35
2023/10/19 02:59:22;;;;;;;21.50;14.70;;;;;;;3.10;72.60;99144.16;107087;1257;60370;-35
2023/10/19 03:02:00;;;;;;;22.60;14.60;;;;;;;3.04;72.61;99140.73;107252;1257;73912;-36
2023/10/19 03:04:29;;;;;;;21.00;15.50;;;;;;;3.00;72.78;99136.60;107031;1263;67626;-36
2023/10/19 03:06:57;;;;;;;23.70;15.40;;;;;;;2.93;72.92;99136.70;107042;1257;72654;-36
2023/10/19 03:09:29;;;;;;;19.10;13.80;;;;;;;2.93;72.82;99137.61;107171;1257;60881;-35
2023/10/19 03:12:04;;;;;;;20.60;14.20;;;;;;;2.95;72.47;99133.63;107209;1258;60672;-36
2023/10/19 03:14:32;;;;;;;22.80;15.10;;;;;;;2.92;72.64;99128.91;107072;1264;72919;-36
2023/10/19 03:17:00;;;;;;;21.50;15.00;;;;;;;2.86;72.77;99129.16;107204;1257;67755;-35
2023/10/19 03:19:28;;;;;;;21.60;15.70;;;;;;;2.81;72.92;99132.91;107022;1258;72672;-35
2023/10/19 03:21:59;;;;;;;22.90;16.40;;;;;;;2.77;72.94;99131.98;107211;1257;60395;-35
2023/10/19 03:24:38;;;;;;;23.70;15.50;;;;;;;2.72;73.02;99135.49;107068;1257;60447;-35
2023/10/19 03:27:13;;;;;;;23.40;16.60;;;;;;;2.71;73.03;99131.24;107071;1257;73867;-35
2023/10/19 03:29:45;;;;;;;23.70;16.10;;;;;;;2.72;72.89;99130.80;107244;1257;67564;-35
2023/10/19 03:32:14;;;;;;;24.20;14.90;;;;;;;2.78;72.66;99128.44;107093;1263;72731;-35
2023/10/19 03:34:47;;;;;;;24.40;15.40;;;;;;;2.85;72.63;99126.38;107250;1257;60283;-35
2023/10/19 03:37:19;;;;;;;26.60;16.70;;;;;;;2.86;72.70;99128.31;106887;1257;1003016;-35
2023/10/19 03:39:47;;;;;;;22.60;17.00;;;;;;;2.82;72.72;99127.83;107024;1257;71955;-35
2023/10/19 03:42:14;;;;;;;25.60;17.10;;;;;;;2.82;72.74;99123.33;107205;1262;67750;-35
2023/10/19 03:47:19;;;;;;;22.90;15.80;;;;;;;2.78;72.52;99127.89;107221;1258;60700;-35
2023/10/19 03:49:47;;;;;;;23.60;16.40;;;;;;;2.74;72.62;99132.14;107234;1262;60036;-35
2023/10/19 03:54:43;;;;;;;22.00;15.50;;;;;;;2.74;72.35;99132.52;107183;1257;67597;-35
2023/10/19 03:57:12;;;;;;;26.10;16.60;;;;;;;2.76;71.88;99130.19;107059;1257;71701;-35
2023/10/19 03:59:39;;;;;;;22.60;16.70;;;;;;;2.70;72.04;99131.88;107226;1256;60392;-35
2023/10/19 04:02:14;;;;;;;24.00;16.60;;;;;;;2.60;72.27;99136.40;107202;1262;60428;-35
2023/10/19 04:04:43;;;;;;;22.50;16.10;;;;;;;2.53;72.33;99134.39;107217;1257;73858;-35
2023/10/19 04:07:20;;;;;;;25.90;17.20;;;;;;;2.48;72.35;99133.76;107295;1257;66441;-35
2023/10/19 04:10:09;;;;;;;25.80;16.90;;;;;;;2.40;72.78;99131.19;107214;1263;72679;-35
2023/10/19 04:12:41;;;;;;;18.40;12.10;;;;;;;2.34;72.99;99131.10;107202;1257;60318;-35
2023/10/19 04:15:12;;;;;;;21.50;15.10;;;;;;;2.36;73.17;99131.21;107244;1257;60433;-35
2023/10/19 04:17:42;;;;;;;20.10;15.80;;;;;;;2.34;73.07;99129.60;107215;1257;73874;-35
2023/10/19 04:22:45;;;;;;;24.30;16.80;;;;;;;2.24;73.80;99132.39;107220;1257;72682;-35
2023/10/19 04:25:15;;;;;;;24.40;16.40;;;;;;;2.23;73.87;99129.50;107316;1257;60411;-35
2023/10/19 04:27:43;;;;;;;23.20;17.00;;;;;;;2.22;73.81;99126.58;107262;1257;60424;-35
2023/10/19 04:30:24;;;;;;;23.70;17.20;;;;;;;2.21;73.78;99130.89;107210;1257;73854;-35
2023/10/19 04:32:58;;;;;;;21.50;16.60;;;;;;;2.18;73.55;99132.98;107207;1263;67602;-35
2023/10/19 04:35:29;;;;;;;23.80;16.50;;;;;;;2.27;73.32;99133.16;107214;1262;72763;-35
2023/10/19 04:37:58;;;;;;;23.70;16.60;;;;;;;2.32;73.04;99131.07;107195;1257;60500;-35
2023/10/19 04:40:26;;;;;;;27.00;17.50;;;;;;;2.28;73.18;99130.83;107214;1263;60409;-35
2023/10/19 04:42:54;;;;;;;24.70;18.00;;;;;;;2.28;73.46;99132.41;107202;1257;73779;-35
2023/10/19 04:45:22;;;;;;;25.70;18.20;;;;;;;2.26;73.39;99131.23;107213;1258;67593;-35
2023/10/19 04:47:52;;;;;;;25.90;18.10;;;;;;;2.23;73.41;99134.54;105720;1257;1003674;-35
2023/10/19 04:50:20;;;;;;;24.70;18.30;;;;;;;2.19;73.46;99131.09;107219;1258;60309;-35
2023/10/19 04:52:48;;;;;;;27.90;18.20;;;;;;;2.15;73.53;99136.92;107204;1257;59260;-35
2023/10/19 04:55:16;;;;;;;26.80;16.70;;;;;;;2.20;73.75;99132.04;107203;1262;73853;-35
2023/10/19 04:57:44;;;;;;;27.00;17.20;;;;;;;2.27;73.58;99132.81;107203;1257;68082;-35
2023/10/19 05:00:13;;;;;;;22.90;16.80;;;;;;;2.30;73.77;99132.39;107189;1257;72802;-35
2023/10/19 05:02:42;;;;;;;26.90;18.70;;;;;;;2.31;74.16;99132.20;107254;1261;60411;-35
2023/10/19 05:05:10;;;;;;;25.80;18.90;;;;;;;2.34;74.26;99136.08;107256;1257;59165;-35
2023/10/19 05:07:38;;;;;;;26.70;18.10;;;;;;;2.38;74.19;99137.41;107215;1258;73837;-35
2023/10/19 05:10:07;;;;;;;26.50;19.10;;;;;;;2.41;74.37;99138.55;107183;1257;67574;-35
2023/10/19 05:12:34;;;;;;;25.10;17.20;;;;;;;2.43;74.49;99141.42;107250;1257;71443;-35
2023/10/19 05:15:02;;;;;;;26.70;17.50;;;;;;;2.52;74.44;99145.89;107183;1258;60322;-35
2023/10/19 05:20:23;;;;;;;25.50;18.70;;;;;;;2.66;74.87;99150.14;104117;1292;600246;-35
2023/10/19 05:22:51;;;;;;;26.50;18.90;;;;;;;2.70;75.03;99154.05;106608;1267;59296;-35
2023/10/19 05:25:18;;;;;;;26.80;19.60;;;;;;;2.73;75.08;99156.79;106627;1266;59218;-35
2023/10/19 05:27:46;;;;;;;29.10;19.30;;;;;;;2.76;75.21;99158.21;106634;1266;71099;-35
2023/10/19 05:30:14;;;;;;;27.30;19.00;;;;;;;2.77;75.37;99154.54;106628;1266;67875;-35
2023/10/19 05:32:41;;;;;;;27.80;17.70;;;;;;;2.88;75.56;99153.66;105889;1266;1002997;-35
2023/10/19 05:35:13;;;;;;;26.40;18.50;;;;;;;3.01;75.41;99152.73;106520;1264;340708;-35
2023/10/19 05:37:41;;;;;;;25.80;18.70;;;;;;;3.08;75.33;99154.73;106787;1264;60034;-36
2023/10/19 05:40:12;;;;;;;25.60;18.40;;;;;;;3.12;75.62;99155.41;106826;1264;72340;-35
2023/10/19 05:42:40;;;;;;;30.10;19.80;;;;;;;3.15;75.83;99156.62;107310;1257;66206;-35
2023/10/19 05:45:08;;;;;;;30.60;19.40;;;;;;;3.14;75.96;99155.98;107298;1261;72735;-36
2023/10/19 05:47:36;;;;;;;28.30;18.00;;;;;;;3.19;76.01;99161.78;106590;1257;1003082;-35
2023/10/19 05:50:04;;;;;;;24.40;18.60;;;;;;;3.29;75.92;99161.02;107282;1257;60003;-35
2023/10/19 05:52:32;;;;;;;23.10;16.40;;;;;;;3.38;75.99;99165.63;107301;1257;71742;-35
2023/10/19 05:55:00;;;;;;;29.40;18.10;;;;;;;3.42;75.99;99157.73;107261;1257;68385;-35
2023/10/19 05:57:27;;;;;;;28.20;19.00;;;;;;;3.45;76.11;99160.04;107202;1256;71359;-35
2023/10/19 05:59:55;;;;;;;29.00;19.30;;;;;;;3.51;76.46;99158.90;107113;1257;59678;-35
2023/10/19 06:02:22;;;;;;;29.30;18.60;;;;;;;3.56;76.40;99163.19;107105;1257;60196;-36
2023/10/19 06:04:59;;;;;;;23.20;17.80;;;;;;;3.66;75.62;99166.84;107229;1257;73148;-35
2023/10/19 06:07:27;;;;;;;23.70;17.80;;;;;;;3.76;75.28;99166.42;107210;1257;68002;-36
2023/10/19 06:09:55;;;;;;;28.90;19.30;;;;;;;3.80;75.27;99170.58;107160;1257;72696;-35
2023/10/19 06:12:23;;;;;;;25.10;19.10;;;;;;;3.83;75.22;99171.98;107140;1257;59711;-36
2023/10/19 06:14:50;;;;;;;26.80;18.70;;;;;;;3.85;75.49;99168.32;107253;1257;59746;-35
2023/10/19 06:17:19;;;;;;;25.50;18.50;;;;;;;3.91;75.88;99170.58;107269;1257;73155;-35
2023/10/19 06:19:47;;;;;;;38.60;18.50;;;;;;;4.04;75.37;99177.40;107259;1257;67717;-36
2023/10/19 06:22:16;;;;;;;24.30;16.80;;;;;;;4.14;75.21;99170.23;107261;1257;72819;-35
2023/10/19 06:24:44;;;;;;;28.10;18.50;;;;;;;4.21;75.08;99172.64;107261;1256;59949;-36
2023/10/19 06:27:11;;;;;;;27.00;19.00;;;;;;;4.25;75.16;99172.27;107113;1257;59572;-35
2023/10/19 06:29:39;;;;;;;26.20;19.40;;;;;;;4.29;75.10;99171.23;107153;1257;72189;-35
2023/10/19 06:32:06;;;;;;;29.20;19.10;;;;;;;4.34;75.05;99171.13;107228;1257;66328;-36
2023/10/19 06:34:35;;;;;;;47.50;19.10;;;;;;;4.44;74.99;99165.75;107297;1257;70781;-36
2023/10/19 06:37:03;;;;;;;26.60;18.30;;;;;;;4.56;74.51;99163.85;107236;1257;60248;-35
2023/10/19 06:39:32;;;;;;;27.70;18.60;;;;;;;4.60;74.04;99163.64;107243;1257;60057;-35
2023/10/19 06:41:59;;;;;;;28.00;18.30;;;;;;;4.63;74.40;99162.46;107258;1257;73082;-35
2023/10/19 06:44:27;;;;;;;26.90;18.80;;;;;;;4.68;74.24;99159.65;107247;1257;67962;-36
2023/10/19 06:46:55;;;;;;;27.40;18.60;;;;;;;4.70;73.58;99161.27;107192;1257;71399;-36
2023/10/19 06:49:24;;;;;;;26.00;17.80;;;;;;;4.71;73.25;99160.61;107175;1257;59910;-36
2023/10/19 06:51:53;;;;;;;25.40;17.40;;;;;;;4.79;73.33;99156.00;107170;1257;60103;-35
2023/10/19 06:54:21;;;;;;;26.10;17.20;;;;;;;4.91;73.19;99159.30;107253;1257;72048;-36
2023/10/19 06:56:48;;;;;;;24.00;18.20;;;;;;;4.99;73.53;99152.39;107226;1257;67573;-36
2023/10/19 06:59:17;;;;;;;23.80;17.50;;;;;;;5.08;73.75;99150.58;107268;1257;72703;-36
2023/10/19 07:01:46;;;;;;;28.30;18.50;;;;;;;5.18;73.34;99154.84;107237;1257;59654;-36
2023/10/19 07:04:14;;;;;;;30.10;17.70;;;;;;;5.25;72.96;99152.96;107279;1260;59144;-35
2023/10/19 07:06:41;;;;;;;27.70;17.90;;;;;;;5.30;72.56;99151.61;107239;1257;73064;-35
2023/10/19 07:09:10;;;;;;;24.20;16.50;;;;;;;5.44;72.52;99145.42;107225;1260;66770;-35
2023/10/19 07:11:38;;;;;;;26.40;16.90;;;;;;;5.59;72.22;99141.89;107239;1257;73212;-35
2023/10/19 07:14:07;;;;;;;28.30;17.40;;;;;;;5.67;71.53;99143.33;107233;1257;60059;-35
2023/10/19 07:16:35;;;;;;;27.30;17.20;;;;;;;5.73;71.38;99143.59;107248;1261;60317;-34
2023/10/19 07:19:04;;;;;;;26.30;18.30;;;;;;;5.80;71.68;99143.92;107198;1257;73359;-35
2023/10/19 07:21:35;;;;;;;24.30;17.00;;;;;;;5.89;71.68;99143.40;107243;1257;67578;-35
2023/10/19 07:24:05;;;;;;;27.90;18.00;;;;;;;5.99;71.28;99142.05;107165;1258;70384;-34
2023/10/19 07:26:41;;;;;;;;;;;;;;;6.14;70.29;99137.70;107179;1257;61075;-35
2023/10/19 07:29:10;;;;;;;21.90;16.50;;;;;;;6.30;69.77;99142.46;107255;1257;59884;-35
2023/10/19 07:31:38;;;;;;;22.80;17.10;;;;;;;6.38;69.58;99138.88;107277;1257;73114;-35
2023/10/19 07:34:08;;;;;;;25.10;16.80;;;;;;;6.46;69.23;99139.23;107115;1257;67869;-34
2023/10/19 07:36:36;;;;;;;21.50;15.60;;;;;;;6.52;69.01;99136.08;107129;1257;72629;-35
2023/10/19 07:39:04;;;;;;;25.10;17.60;;;;;;;6.60;68.43;99138.15;107205;1257;59483;-34
2023/10/19 07:41:36;;;;;;;22.30;17.10;;;;;;;6.64;68.04;99136.90;107144;1257;60034;-35
2023/10/19 07:44:04;;;;;;;22.80;15.90;;;;;;;6.69;67.88;99135.91;107175;1257;73044;-35
2023/10/19 07:46:32;;;;;;;21.10;15.20;;;;;;;6.82;67.78;99134.83;107259;1257;67855;-35
2023/10/19 07:49:02;;;;;;;22.50;16.50;;;;;;;6.91;67.77;99131.65;107225;1257;72720;-34
2023/10/19 07:51:30;;;;;;;24.50;15.80;;;;;;;7.02;67.75;99135.89;107217;1257;59644;-35
2023/10/19 07:53:58;;;;;;;20.80;14.80;;;;;;;7.13;67.58;99131.73;107213;1257;60015;-35
2023/10/19 07:56:25;;;;;;;23.30;16.10;;;;;;;7.24;67.19;99128.96;107225;1256;73065;-35
2023/10/19 07:58:53;;;;;;;20.80;15.20;;;;;;;7.32;66.71;99128.52;107198;1257;70159;-35
2023/10/19 08:01:20;;;;;;;23.90;16.40;;;;;;;7.41;66.42;99126.89;107210;1257;72690;-35
2023/10/19 08:03:48;;;;;;;20.00;14.70;;;;;;;7.50;66.27;99130.52;107195;1260;59714;-35
2023/10/19 08:06:15;;;;;;;22.50;13.70;;;;;;;7.62;65.91;99120.15;107255;1262;59519;-35
2023/10/19 08:08:43;;;;;;;19.40;13.90;;;;;;;7.79;65.34;99119.51;107241;1257;71874;-35
2023/10/19 08:11:12;;;;;;;22.00;14.80;;;;;;;7.88;65.04;99118.59;107250;1257;67887;-35
2023/10/19 08:13:39;;;;;;;21.20;14.80;;;;;;;7.96;64.70;99116.70;107245;1257;72662;-35
2023/10/19 08:16:07;;;;;;;19.40;14.40;;;;;;;8.05;64.71;99112.77;107260;1257;59572;-35
2023/10/19 08:18:35;;;;;;;17.40;14.10;;;;;;;8.15;64.12;99112.48;107242;1257;59986;-35
2023/10/19 08:21:03;;;;;;;22.10;14.20;;;;;;;8.25;63.39;99109.33;107210;1258;73126;-35
2023/10/19 08:23:31;;;;;;;20.20;14.20;;;;;;;8.36;63.26;99107.98;107245;1257;66469;-35
2023/10/19 08:25:59;;;;;;;20.70;14.60;;;;;;;8.45;61.79;99111.52;107221;1257;72696;-35
2023/10/19 08:28:27;;;;;;;15.70;12.30;;;;;;;8.50;61.15;99109.79;107190;1258;60317;-35
2023/10/19 08:31:00;;;;;;;16.40;10.40;;;;;;;8.55;60.23;99108.59;107226;1257;60124;-35
2023/10/19 08:33:29;;;;;;;14.60;10.10;;;;;;;8.61;59.31;99104.61;107209;1257;73193;-35
2023/10/19 08:35:59;;;;;;;16.30;11.70;;;;;;;8.67;59.55;99104.14;107200;1257;70261;-35
2023/10/19 08:38:28;;;;;;;16.40;11.40;;;;;;;8.74;59.54;99104.77;107230;1260;71558;-35
2023/10/19 08:40:56;;;;;;;14.40;11.00;;;;;;;8.82;59.70;99103.70;107251;1261;60056;-35
2023/10/19 08:43:25;;;;;;;18.40;11.90;;;;;;;8.91;59.17;99106.14;107036;1257;60165;-35
2023/10/19 08:45:54;;;;;;;16.20;11.70;;;;;;;9.02;59.03;99106.83;107222;1257;75130;-35
2023/10/19 08:48:22;;;;;;;15.80;12.30;;;;;;;9.11;58.09;99111.36;107226;1257;65858;-35
2023/10/19 08:50:51;;;;;;;16.30;12.60;;;;;;;9.19;58.03;99111.19;107213;1257;72753;-35
2023/10/19 08:53:19;;;;;;;18.00;12.40;;;;;;;9.26;58.04;99107.55;107193;1260;60389;-35
2023/10/19 08:55:49;;;;;;;16.90;11.10;;;;;;;9.34;57.81;99106.23;107026;1257;60168;-35
2023/10/19 08:58:19;;;;;;;15.70;10.60;;;;;;;9.43;56.71;99103.46;107243;1258;71858;-35
2023/10/19 09:00:54;;;;;;;16.10;11.10;;;;;;;9.50;56.06;99102.99;107187;1257;68046;-35
2023/10/19 09:03:26;;;;;;;13.80;10.80;;;;;;;9.58;55.29;99097.57;107187;1257;72672;-35
2023/10/19 09:05:56;;;;;;;14.40;9.90;;;;;;;9.64;55.29;99094.67;107181;1257;59634;-35
2023/10/19 09:08:24;;;;;;;13.30;10.00;;;;;;;9.71;54.54;99097.80;107229;1257;60145;-35
2023/10/19 09:10:53;;;;;;;14.00;10.50;;;;;;;9.76;54.63;99101.15;107243;1257;71466;-35
2023/10/19 09:13:22;;;;;;;13.60;10.20;;;;;;;9.81;54.02;99099.61;107258;1257;67629;-35
2023/10/19 09:15:55;;;;;;;12.10;9.70;;;;;;;9.87;54.03;99097.02;106496;1257;1003172;-35
2023/10/19 09:18:28;;;;;;;11.30;8.90;;;;;;;9.93;54.03;99097.43;107271;1260;59628;-35
2023/10/19 09:21:07;;;;;;;13.40;9.10;;;;;;;10.00;52.90;99100.56;107279;1257;60504;-35
2023/10/19 09:23:36;;;;;;;11.90;9.90;;;;;;;10.04;52.90;99098.30;107222;1262;73061;-35
2023/10/19 09:26:05;;;;;;;14.90;10.70;;;;;;;10.07;52.74;99095.56;107252;1257;67758;-35
2023/10/19 09:28:37;;;;;;;12.20;9.20;;;;;;;10.09;52.52;99093.11;107249;1257;74550;-35
2023/10/19 09:31:09;;;;;;;11.80;9.20;;;;;;;10.12;52.33;99094.95;107260;1260;60053;-35
2023/10/19 09:33:39;;;;;;;13.20;9.50;;;;;;;10.18;52.32;99089.95;106471;1257;1003367;-35
2023/10/19 09:36:12;;;;;;;14.30;9.20;;;;;;;10.25;52.23;99090.23;107225;1258;73888;-35
2023/10/19 09:38:44;;;;;;;12.30;9.50;;;;;;;10.32;51.31;99088.48;107098;1257;67887;-35
2023/10/19 09:41:12;;;;;;;12.80;9.90;;;;;;;10.36;51.01;99087.38;107206;1257;72805;-35
2023/10/19 09:43:49;;;;;;;14.80;9.60;;;;;;;10.38;51.42;99085.33;107259;1257;60514;-35
2023/10/19 09:46:26;;;;;;;13.60;9.90;;;;;;;10.45;51.04;99085.05;107192;1257;60444;-35
2023/10/19 09:48:54;;;;;;;12.60;9.40;;;;;;;10.52;51.28;99078.49;107243;1257;73964;-35
2023/10/19 09:51:22;;;;;;;13.10;9.30;;;;;;;10.61;50.86;99067.84;107059;1257;66821;-35
2023/10/19 09:53:53;;;;;;;14.40;9.70;;;;;;;10.68;50.61;99067.55;107048;1260;72841;-35
2023/10/19 09:56:25;;;;;;;14.50;10.20;;;;;;;10.74;50.31;99062.46;107234;1257;60379;-35
2023/10/19 09:58:55;;;;;;;12.30;10.10;;;;;;;10.80;50.07;99065.72;107269;1257;60431;-35
2023/10/19 10:01:26;;;;;;;12.40;10.10;;;;;;;10.86;50.38;99061.68;107263;1257;74199;-35
2023/10/19 10:03:53;;;;;;;12.50;10.00;;;;;;;10.94;50.22;99057.20;107263;1257;67129;-35
2023/10/19 10:06:28;;;;;;;12.10;10.10;;;;;;;11.01;50.07;99053.80;107200;1257;71524;-35
2023/10/19 10:08:59;;;;;;;12.60;9.50;;;;;;;11.05;50.53;99049.05;107214;1257;60432;-35
2023/10/19 10:11:27;;;;;;;10.80;8.90;;;;;;;11.11;50.52;99043.01;107220;1257;60507;-35
2023/10/19 10:13:56;;;;;;;13.60;9.30;;;;;;;11.18;50.36;99041.90;107226;1257;72106;-35
2023/10/19 10:16:25;;;;;;;12.90;10.00;;;;;;;11.23;50.09;99040.19;107268;1261;66781;-35
2023/10/19 10:19:00;;;;;;;13.80;10.20;;;;;;;11.28;50.15;99038.30;107229;1256;71863;-35
2023/10/19 10:21:29;;;;;;;12.40;9.50;;;;;;;11.36;50.12;99030.55;107271;1262;60377;-36
2023/10/19 10:23:59;;;;;;;;;;;;;;;11.44;49.80;99026.45;107235;1257;60422;-35
2023/10/19 10:26:29;;;;;;;11.30;8.70;;;;;;;11.50;49.32;99019.22;107112;1257;73974;-35
2023/10/19 10:29:21;;;;;;;12.00;9.80;;;;;;;11.53;49.04;99015.90;107252;1257;66813;-35
2023/10/19 10:31:49;;;;;;;14.00;9.50;;;;;;;11.55;48.92;99015.62;107250;1257;71518;-35
2023/10/19 10:34:45;;;;;;;11.80;8.60;;;;;;;11.56;48.97;99013.38;107201;1257;60444;-35
2023/10/19 10:37:16;;;;;;;11.90;8.30;;;;;;;11.64;48.94;99009.97;107235;1257;60399;-35
2023/10/19 10:39:44;;;;;;;11.20;8.40;;;;;;;11.71;48.99;99006.84;107210;1257;73056;-35
2023/10/19 10:42:13;;;;;;;11.80;8.20;;;;;;;11.76;48.45;99007.45;107176;1257;67295;-35
2023/10/19 10:44:47;;;;;;;11.40;8.10;;;;;;;11.76;48.76;99007.22;107213;1257;71664;-35
2023/10/19 10:47:17;;;;;;;10.90;8.40;;;;;;;11.79;48.93;99008.48;107267;1260;60427;-35
2023/10/19 10:49:56;;;;;;;12.40;8.30;;;;;;;11.83;48.79;99006.98;107243;1257;60623;-35
2023/10/19 10:52:31;;;;;;;11.20;7.50;;;;;;;11.83;48.53;99006.96;107231;1262;72648;-35
2023/10/19 10:55:13;;;;;;;9.80;7.20;;;;;;;11.80;48.29;99002.36;107219;1257;67115;-35
2023/10/19 10:57:41;;;;;;;11.70;8.30;;;;;;;11.73;48.39;99005.48;107229;1261;71780;-36
2023/10/19 11:00:15;;;;;;;10.70;7.80;;;;;;;11.71;48.79;99005.67;107216;1257;60455;-36
2023/10/19 11:02:45;;;;;;;10.10;7.40;;;;;;;11.73;48.70;98998.95;107250;1261;60400;-36
2023/10/19 11:05:14;;;;;;;14.20;7.50;;;;;;;11.81;49.01;98998.88;107229;1257;73850;-36
2023/10/19 11:08:15;;;;;;;8.20;6.70;;;;;;;11.91;48.45;98993.22;107293;1257;67817;-36
2023/10/19 11:10:46;;;;;;;9.80;6.80;;;;;;;12.01;48.00;98997.87;107266;1257;72686;-36
2023/10/19 11:13:15;;;;;;;12.10;7.70;;;;;;;12.06;48.19;98996.96;107244;1257;60427;-36
2023/10/19 11:15:53;;;;;;;9.60;7.20;;;;;;;12.08;47.55;98997.85;107300;1261;59245;-35
2023/10/19 11:18:28;;;;;;;11.00;7.30;;;;;;;12.05;47.44;98988.43;107172;1262;72645;-36
2023/10/19 11:20:59;;;;;;;10.10;6.50;;;;;;;12.01;47.67;98984.35;107227;1257;67056;-35
2023/10/19 11:23:44;;;;;;;11.60;6.10;;;;;;;11.98;47.70;98978.83;107093;1257;72995;-35
2023/10/19 11:26:12;;;;;;;9.80;7.10;;;;;;;11.98;47.94;98975.02;107246;1258;60696;-36
2023/10/19 11:28:46;;;;;;;12.30;7.10;;;;;;;11.97;48.02;98963.06;107254;1257;60428;-35
2023/10/19 11:31:19;;;;;;;15.20;7.10;;;;;;;12.02;48.25;98956.81;107231;1257;73943;-36
2023/10/19 11:33:49;;;;;;;10.10;7.30;;;;;;;12.12;48.15;98947.02;107261;1257;67018;-36
2023/10/19 11:36:18;;;;;;;10.60;7.00;;;;;;;12.25;47.84;98943.52;107225;1257;71485;-35
2023/10/19 11:38:46;;;;;;;9.20;6.60;;;;;;;12.37;47.70;98936.21;107017;1263;60298;-35
2023/10/19 11:41:15;;;;;;;9.80;6.70;;;;;;;12.50;47.42;98933.07;107304;1263;60316;-35
2023/10/19 11:43:44;;;;;;;9.90;7.00;;;;;;;12.59;46.92;98937.93;107218;1256;73822;-36
2023/10/19 11:46:12;;;;;;;10.40;7.40;;;;;;;12.63;46.51;98935.29;107232;1263;68125;-36
2023/10/19 11:48:42;;;;;;;10.20;7.30;;;;;;;12.68;46.90;98931.52;107283;1257;72663;-36
2023/10/19 11:51:14;;;;;;;10.20;7.40;;;;;;;12.80;46.53;98923.54;107208;1257;60282;-36
2023/10/19 11:53:42;;;;;;;12.50;7.30;;;;;;;12.97;46.15;98927.25;107224;1257;59759;-35
2023/10/19 11:56:12;;;;;;;10.40;7.90;;;;;;;13.05;45.71;98928.11;107200;1257;72887;-35
2023/10/19 11:58:46;;;;;;;10.50;7.50;;;;;;;13.09;45.77;98926.89;107263;1257;67661;-36